createdAt,value
2023-05-20T00:00:49.837Z,101934.69
2023-05-20T00:03:17.627Z,101942.59
2023-05-20T00:05:44.954Z,101941.44
2023-05-20T00:08:12.204Z,101947.31
2023-05-20T00:10:39.957Z,101942.47
2023-05-20T00:13:07.381Z,101944.03
2023-05-20T00:15:35.078Z,101941.78
2023-05-20T00:18:04.395Z,101936.78
2023-05-20T00:20:32.667Z,101944.66
2023-05-20T00:22:59.694Z,101942.53
2023-05-20T00:25:26.760Z,101941.06
2023-05-20T00:27:53.692Z,101938.81
2023-05-20T00:30:20.903Z,101934.53
2023-05-20T00:32:48.147Z,101939.53
2023-05-20T00:35:15.120Z,101936.25
2023-05-20T00:37:42.007Z,101947.38
2023-05-20T00:40:09.576Z,101942.25
2023-05-20T00:42:36.533Z,101942.78
2023-05-20T00:45:03.529Z,101945.09
2023-05-20T00:47:36.875Z,101939.09
2023-05-20T00:50:04.768Z,101937.66
2023-05-20T00:52:33.130Z,101932.78
2023-05-20T00:55:00.525Z,101933.09
2023-05-20T00:57:27.952Z,101938.78
2023-05-20T00:59:55.247Z,101940.19
2023-05-20T01:02:23.547Z,101948.63
2023-05-20T01:04:50.551Z,101947.16
2023-05-20T01:07:18.848Z,101944.63
2023-05-20T01:09:46.156Z,101950.19
2023-05-20T01:12:29.839Z,101949.88
2023-05-20T01:15:07.294Z,101950.75
2023-05-20T01:17:46.977Z,101948.47
2023-05-20T01:20:15.562Z,101939.78
2023-05-20T01:22:55.956Z,101937.09
2023-05-20T01:25:23.206Z,101946.34
2023-05-20T01:27:51.251Z,101953.94
2023-05-20T01:30:18.491Z,101954.50
2023-05-20T01:32:53.210Z,101949.63
2023-05-20T01:35:22.019Z,101955.09
2023-05-20T01:37:51.122Z,101954.78
2023-05-20T01:40:19.500Z,101955.38
2023-05-20T01:42:53.318Z,101951.38
2023-05-20T01:45:21.049Z,101952.53
2023-05-20T01:47:48.459Z,101951.09
2023-05-20T01:50:15.481Z,101957.94
2023-05-20T01:52:42.581Z,101961.19
2023-05-20T01:55:10.259Z,101959.75
2023-05-20T01:57:37.288Z,101958.34
2023-05-20T02:00:04.885Z,101955.91
2023-05-20T02:02:31.862Z,101961.31
2023-05-20T02:04:58.865Z,101958.91
2023-05-20T02:07:25.830Z,101964.91
2023-05-20T02:09:52.770Z,101963.44
2023-05-20T02:12:19.721Z,101959.56
2023-05-20T02:14:48.374Z,101951.81
2023-05-20T02:17:17.585Z,101959.50
2023-05-20T02:19:46.156Z,101952.94
2023-05-20T02:22:14.282Z,101945.34
2023-05-20T02:24:41.905Z,101946.03
2023-05-20T02:27:08.922Z,101953.56
2023-05-20T02:29:35.840Z,101950.56
2023-05-20T02:32:02.982Z,101954.56
2023-05-20T02:34:31.838Z,101945.25
2023-05-20T02:36:58.974Z,101945.94
2023-05-20T02:39:26.161Z,101942.63
2023-05-20T02:41:53.131Z,101948.84
2023-05-20T02:44:20.237Z,101945.53
2023-05-20T02:46:47.219Z,101946.09
2023-05-20T02:49:14.157Z,101955.59
2023-05-20T02:51:41.164Z,101949.72
2023-05-20T02:54:08.143Z,101949.25
2023-05-20T02:56:35.149Z,101951.53
2023-05-20T02:59:02.045Z,101944.06
2023-05-20T03:01:29.804Z,101939.88
2023-05-20T03:03:56.808Z,101947.69
2023-05-20T03:06:23.824Z,101946.22
2023-05-20T03:08:50.770Z,101939.50
2023-05-20T03:11:17.706Z,101945.28
2023-05-20T03:13:44.646Z,101945.56
2023-05-20T03:16:13.356Z,101945.09
2023-05-20T03:18:41.065Z,101931.09
2023-05-20T03:21:08.163Z,101930.63
2023-05-20T03:23:35.705Z,101930.03
2023-05-20T03:26:03.698Z,101930.41
2023-05-20T03:28:30.692Z,101927.81
2023-05-20T03:30:57.648Z,101920.13
2023-05-20T03:33:26.493Z,101926.78
2023-05-20T03:35:53.461Z,101923.47
2023-05-20T03:38:20.504Z,101929.22
2023-05-20T03:40:47.429Z,101932.22
2023-05-20T03:43:14.425Z,101927.28
2023-05-20T03:45:41.436Z,101929.38
2023-05-20T03:48:08.518Z,101928.78
2023-05-20T03:50:35.908Z,101930.88
2023-05-20T03:53:02.948Z,101927.69
2023-05-20T03:55:29.899Z,101936.78
2023-05-20T03:57:57.227Z,101937.03
2023-05-20T04:00:24.404Z,101933.72
2023-05-20T04:02:51.457Z,101942.94
2023-05-20T04:05:18.788Z,101934.22
2023-05-20T04:07:45.814Z,101936.19
2023-05-20T04:10:12.984Z,101935.47
2023-05-20T04:12:40.025Z,101935.47
2023-05-20T04:15:07.992Z,101932.88
2023-05-20T04:17:37.929Z,101919.25
2023-05-20T04:20:07.479Z,101927.19
2023-05-20T04:22:35.126Z,101936.81
2023-05-20T04:25:03.948Z,101927.56
2023-05-20T04:27:31.619Z,101938.75
2023-05-20T04:29:58.996Z,101939.09
2023-05-20T04:32:27.106Z,101934.31
2023-05-20T04:34:56.326Z,101939.31
2023-05-20T04:37:23.306Z,101934.28
2023-05-20T04:39:51.365Z,101944.72
2023-05-20T04:42:19.381Z,101933.66
2023-05-20T04:44:46.457Z,101934.16
2023-05-20T04:47:14.177Z,101929.19
2023-05-20T04:49:41.552Z,101930.69
2023-05-20T04:52:08.653Z,101928.72
2023-05-20T04:54:35.701Z,101936.53
2023-05-20T04:57:03.162Z,101929.16
2023-05-20T04:59:30.114Z,101928.91
2023-05-20T05:01:57.131Z,101929.50
2023-05-20T05:04:24.154Z,101925.69
2023-05-20T05:06:51.185Z,101926.16
2023-05-20T05:09:18.133Z,101926.22
2023-05-20T05:11:45.102Z,101918.81
2023-05-20T05:14:12.114Z,101921.53
2023-05-20T05:16:39.071Z,101925.94
2023-05-20T05:19:06.309Z,101926.78
2023-05-20T05:21:33.404Z,101918.66
2023-05-20T05:24:00.384Z,101919.97
2023-05-20T05:26:27.321Z,101919.72
2023-05-20T05:28:55.680Z,101916.56
2023-05-20T05:31:22.668Z,101918.38
2023-05-20T05:33:49.694Z,101921.69
2023-05-20T05:36:17.237Z,101922.72
2023-05-20T05:38:44.784Z,101921.31
2023-05-20T05:41:11.759Z,101918.31
2023-05-20T05:43:38.695Z,101923.16
2023-05-20T05:46:05.744Z,101918.59
2023-05-20T05:48:32.997Z,101912.97
2023-05-20T05:50:59.916Z,101918.94
2023-05-20T05:53:27.164Z,101910.22
2023-05-20T05:55:54.369Z,101908.81
2023-05-20T05:58:21.338Z,101914.41
2023-05-20T06:00:53.284Z,101917.91
2023-05-20T06:03:20.392Z,101915.44
2023-05-20T06:05:50.155Z,101916.06
2023-05-20T06:08:17.319Z,101917.06
2023-05-20T06:10:51.571Z,101918.16
2023-05-20T06:13:19.007Z,101910.56
2023-05-20T06:15:46.716Z,101920.69
2023-05-20T06:18:13.733Z,101914.31
2023-05-20T06:20:41.290Z,101920.50
2023-05-20T06:23:08.280Z,101925.03
2023-05-20T06:25:35.401Z,101917.56
2023-05-20T06:28:02.597Z,101912.94
2023-05-20T06:30:29.517Z,101916.06
2023-05-20T06:32:56.491Z,101916.91
2023-05-20T06:35:23.487Z,101908.88
2023-05-20T06:37:50.513Z,101913.47
2023-05-20T06:40:17.587Z,101912.16
2023-05-20T06:42:44.602Z,101909.72
2023-05-20T06:45:12.064Z,101913.66
2023-05-20T06:47:39.018Z,101906.72
2023-05-20T06:50:06.597Z,101904.44
2023-05-20T06:52:33.560Z,101901.44
2023-05-20T06:55:00.970Z,101900.03
2023-05-20T06:57:27.977Z,101899.25
2023-05-20T06:59:54.898Z,101898.03
2023-05-20T07:02:22.822Z,101889.72
2023-05-20T07:04:50.068Z,101902.19
2023-05-20T07:07:17.448Z,101889.41
2023-05-20T07:09:44.608Z,101885.22
2023-05-20T07:12:11.556Z,101887.59
2023-05-20T07:14:38.482Z,101884.66
2023-05-20T07:17:06.208Z,101885.69
2023-05-20T07:19:34.169Z,101889.09
2023-05-20T07:22:01.311Z,101892.84
2023-05-20T07:24:28.305Z,101896.91
2023-05-20T07:26:55.270Z,101900.97
2023-05-20T07:29:22.208Z,101893.25
2023-05-20T07:31:49.160Z,101892.78
2023-05-20T07:34:16.324Z,101891.16
2023-05-20T07:36:44.011Z,101895.09
2023-05-20T07:39:14.340Z,101890.78
2023-05-20T07:41:42.405Z,101893.91
2023-05-20T07:44:13.765Z,101889.44
2023-05-20T07:46:42.129Z,101890.91
2023-05-20T07:49:09.184Z,101894.22
2023-05-20T07:51:36.514Z,101891.75
2023-05-20T07:54:03.816Z,101891.84
2023-05-20T07:56:30.917Z,101886.78
2023-05-20T07:59:00.630Z,101897.44
2023-05-20T08:01:27.773Z,101888.13
2023-05-20T08:03:55.171Z,101889.84
2023-05-20T08:06:24.521Z,101893.38
2023-05-20T08:08:51.519Z,101883.63
2023-05-20T08:11:18.453Z,101888.16
2023-05-20T08:13:45.417Z,101894.59
2023-05-20T08:16:12.383Z,101894.75
2023-05-20T08:18:39.735Z,101892.41
2023-05-20T08:21:10.295Z,101896.16
2023-05-20T08:23:40.190Z,101891.91
2023-05-20T08:26:07.997Z,101889.66
2023-05-20T08:28:37.383Z,101890.03
2023-05-20T08:31:04.648Z,101886.84
2023-05-20T08:33:31.641Z,101891.09
2023-05-20T08:35:58.667Z,101890.34
2023-05-20T08:38:25.758Z,101889.00
2023-05-20T08:40:57.663Z,101885.31
2023-05-20T08:43:25.887Z,101888.06
2023-05-20T08:45:53.087Z,101889.00
2023-05-20T08:48:26.346Z,101880.78
2023-05-20T08:50:54.052Z,101874.34
2023-05-20T08:53:23.168Z,101874.94
2023-05-20T08:56:03.846Z,101877.31
2023-05-20T08:58:31.278Z,101878.22
2023-05-20T09:01:01.566Z,101876.16
2023-05-20T09:03:29.136Z,101866.69
2023-05-20T09:06:06.021Z,101868.00
2023-05-20T09:08:33.915Z,101867.75
2023-05-20T09:11:01.392Z,101861.41
2023-05-20T09:13:32.975Z,101866.97
2023-05-20T09:16:02.376Z,101861.13
2023-05-20T09:18:29.975Z,101864.16
2023-05-20T09:20:57.356Z,101861.19
2023-05-20T09:23:25.980Z,101863.03
2023-05-20T09:25:53.241Z,101867.75
2023-05-20T09:28:25.556Z,101859.78
2023-05-20T09:30:59.126Z,101855.19
2023-05-20T09:33:30.470Z,101861.69
2023-05-20T09:36:10.796Z,101856.88
2023-05-20T09:38:40.082Z,101850.84
2023-05-20T09:41:12.742Z,101854.53
2023-05-20T09:43:43.119Z,101850.84
2023-05-20T09:46:11.160Z,101848.94
2023-05-20T09:48:38.770Z,101843.34
2023-05-20T09:51:08.266Z,101843.44
2023-05-20T09:53:36.304Z,101838.91
2023-05-20T09:56:03.986Z,101835.22
2023-05-20T09:58:31.428Z,101836.53
2023-05-20T10:00:58.572Z,101840.53
2023-05-20T10:03:28.505Z,101840.41
2023-05-20T10:06:36.864Z,101841.44
2023-05-20T10:09:21.710Z,101826.59
2023-05-20T10:11:57.771Z,101832.38
2023-05-20T10:14:51.415Z,101832.84
2023-05-20T10:17:30.591Z,101819.19
2023-05-20T10:20:01.397Z,101825.31
2023-05-20T10:22:30.499Z,101818.31
2023-05-20T10:25:07.876Z,101817.59
2023-05-20T10:27:48.299Z,101811.78
2023-05-20T10:30:22.830Z,101809.22
2023-05-20T10:32:57.183Z,101811.13
2023-05-20T10:35:28.946Z,101808.44
2023-05-20T10:38:10.687Z,101810.53
2023-05-20T10:40:38.240Z,101800.91
2023-05-20T10:43:14.457Z,101799.22
2023-05-20T10:45:50.337Z,101802.09
2023-05-20T10:48:31.883Z,101792.63
2023-05-20T10:51:06.729Z,101797.28
2023-05-20T10:53:42.535Z,101790.16
2023-05-20T10:56:24.720Z,101779.50
2023-05-20T10:58:54.006Z,101773.81
2023-05-20T11:01:26.985Z,101780.19
2023-05-20T11:03:58.524Z,101768.47
2023-05-20T11:06:29.252Z,101769.91
2023-05-20T11:08:56.776Z,101767.00
2023-05-20T11:11:24.301Z,101762.22
2023-05-20T11:13:53.312Z,101764.97
2023-05-20T11:16:23.438Z,101763.22
2023-05-20T11:18:51.034Z,101765.97
2023-05-20T11:21:20.552Z,101763.88
2023-05-20T11:23:47.602Z,101753.66
2023-05-20T11:26:14.594Z,101751.81
2023-05-20T11:28:41.649Z,101752.31
2023-05-20T11:31:08.822Z,101743.44
2023-05-20T11:33:35.903Z,101748.72
2023-05-20T11:36:06.542Z,101743.91
2023-05-20T11:38:38.491Z,101746.47
2023-05-20T11:41:05.517Z,101736.44
2023-05-20T11:43:34.306Z,101740.03
2023-05-20T11:46:01.425Z,101736.91
2023-05-20T11:48:28.516Z,101736.28
2023-05-20T11:50:57.096Z,101732.91
2023-05-20T11:53:25.588Z,101733.78
2023-05-20T11:55:58.524Z,101725.13
2023-05-20T11:58:29.760Z,101724.16
2023-05-20T12:01:05.726Z,101716.72
2023-05-20T12:03:40.941Z,101711.25
2023-05-20T12:06:08.275Z,101704.06
2023-05-20T12:08:35.217Z,101718.03
2023-05-20T12:11:02.222Z,101708.31
2023-05-20T12:13:29.274Z,101709.97
2023-05-20T12:15:56.307Z,101709.34
2023-05-20T12:18:23.392Z,101709.97
2023-05-20T12:20:50.300Z,101705.09
2023-05-20T12:23:17.296Z,101697.50
2023-05-20T12:25:47.547Z,101705.34
2023-05-20T12:28:14.862Z,101706.38
2023-05-20T12:30:42.061Z,101700.25
2023-05-20T12:33:09.619Z,101685.41
2023-05-20T12:35:39.757Z,101696.44
2023-05-20T12:38:07.595Z,101685.84
2023-05-20T12:40:35.793Z,101692.59
2023-05-20T12:43:04.879Z,101687.97
2023-05-20T12:45:32.068Z,101686.50
2023-05-20T12:47:59.628Z,101688.41
2023-05-20T12:50:27.530Z,101680.78
2023-05-20T12:52:54.511Z,101671.47
2023-05-20T12:55:21.591Z,101680.78
2023-05-20T12:57:49.053Z,101667.66
2023-05-20T13:00:16.896Z,101654.53
2023-05-20T13:02:44.015Z,101664.69
2023-05-20T13:05:11.722Z,101653.44
2023-05-20T13:07:38.888Z,101660.88
2023-05-20T13:10:07.747Z,101647.53
2023-05-20T13:12:35.649Z,101650.50
2023-05-20T13:15:03.440Z,101658.97
2023-05-20T13:17:30.786Z,101649.41
2023-05-20T13:19:58.597Z,101650.69
2023-05-20T13:22:25.526Z,101646.84
2023-05-20T13:24:52.523Z,101642.41
2023-05-20T13:27:19.479Z,101646.00
2023-05-20T13:29:46.652Z,101655.56
2023-05-20T13:32:13.632Z,101642.63
2023-05-20T13:34:40.736Z,101648.34
2023-05-20T13:37:07.823Z,101630.75
2023-05-20T13:39:35.016Z,101633.28
2023-05-20T13:42:02.102Z,101637.53
2023-05-20T13:44:30.603Z,101628.44
2023-05-20T13:46:58.259Z,101636.91
2023-05-20T13:49:25.925Z,101635.00
2023-05-20T13:51:52.969Z,101630.56
2023-05-20T13:54:21.922Z,101630.53
2023-05-20T13:56:49.340Z,101630.53
2023-05-20T13:59:16.529Z,101629.06
2023-05-20T14:01:45.660Z,101627.38
2023-05-20T14:04:13.484Z,101621.44
2023-05-20T14:06:40.822Z,101620.38
2023-05-20T14:09:09.511Z,101607.06
2023-05-20T14:11:37.337Z,101612.75
2023-05-20T14:14:04.449Z,101601.94
2023-05-20T14:16:32.862Z,101596.84
2023-05-20T14:19:00.108Z,101598.34
2023-05-20T14:21:27.100Z,101598.97
2023-05-20T14:23:54.115Z,101594.09
2023-05-20T14:26:22.022Z,101596.44
2023-05-20T14:28:49.347Z,101587.72
2023-05-20T14:31:16.691Z,101577.97
2023-05-20T14:33:43.754Z,101585.38
2023-05-20T14:36:11.590Z,101586.88
2023-05-20T14:38:38.724Z,101578.44
2023-05-20T14:41:05.765Z,101578.38
2023-05-20T14:43:32.952Z,101573.91
2023-05-20T14:46:00.164Z,101577.22
2023-05-20T14:48:27.114Z,101567.44
2023-05-20T14:50:54.233Z,101573.38
2023-05-20T14:53:21.629Z,101568.94
2023-05-20T14:55:48.748Z,101568.97
2023-05-20T14:58:15.756Z,101557.25
2023-05-20T15:00:42.794Z,101553.16
2023-05-20T15:03:09.915Z,101558.81
2023-05-20T15:05:37.108Z,101545.63
2023-05-20T15:08:04.383Z,101550.31
2023-05-20T15:10:31.773Z,101546.19
2023-05-20T15:12:58.752Z,101546.28
2023-05-20T15:15:25.980Z,101542.91
2023-05-20T15:17:53.011Z,101543.53
2023-05-20T15:20:20.039Z,101534.91
2023-05-20T15:22:48.438Z,101530.66
2023-05-20T15:25:15.659Z,101534.91
2023-05-20T15:27:43.264Z,101546.56
2023-05-20T15:30:11.409Z,101542.34
2023-05-20T15:32:39.941Z,101542.63
2023-05-20T15:35:07.722Z,101532.88
2023-05-20T15:37:34.953Z,101540.09
2023-05-20T15:40:02.121Z,101530.94
2023-05-20T15:42:29.144Z,101528.38
2023-05-20T15:44:56.290Z,101523.47
2023-05-20T15:47:23.334Z,101517.50
2023-05-20T15:49:50.349Z,101515.00
2023-05-20T15:52:17.357Z,101522.66
2023-05-20T15:54:44.278Z,101526.09
2023-05-20T15:57:11.254Z,101517.84
2023-05-20T15:59:38.238Z,101515.13
2023-05-20T16:02:05.252Z,101514.47
2023-05-20T16:04:32.873Z,101505.81
2023-05-20T16:06:59.961Z,101506.84
2023-05-20T16:09:26.938Z,101506.22
2023-05-20T16:11:56.693Z,101499.47
2023-05-20T16:14:23.864Z,101506.22
2023-05-20T16:16:50.882Z,101500.66
2023-05-20T16:19:17.978Z,101515.50
2023-05-20T16:21:45.168Z,101504.94
2023-05-20T16:24:12.633Z,101503.03
2023-05-20T16:26:39.716Z,101493.28
2023-05-20T16:29:06.869Z,101495.03
2023-05-20T16:31:33.972Z,101499.91
2023-05-20T16:34:00.943Z,101497.59
2023-05-20T16:36:27.944Z,101494.03
2023-05-20T16:38:54.881Z,101502.09
2023-05-20T16:41:23.109Z,101488.53
2023-05-20T16:43:50.105Z,101491.50
2023-05-20T16:46:17.206Z,101494.91
2023-05-20T16:48:44.208Z,101485.81
2023-05-20T16:51:11.458Z,101491.97
2023-05-20T16:53:38.498Z,101493.69
2023-05-20T16:56:08.476Z,101483.50
2023-05-20T16:58:35.916Z,101491.34
2023-05-20T17:01:02.938Z,101487.75
2023-05-20T17:03:29.973Z,101490.91
2023-05-20T17:05:57.464Z,101483.06
2023-05-20T17:08:24.459Z,101486.03
2023-05-20T17:10:54.231Z,101491.09
2023-05-20T17:13:21.891Z,101484.75
2023-05-20T17:15:48.867Z,101484.34
2023-05-20T17:18:16.933Z,101475.47
2023-05-20T17:20:43.970Z,101479.25
2023-05-20T17:23:11.009Z,101474.00
2023-05-20T17:25:38.169Z,101472.09
2023-05-20T17:28:05.256Z,101477.59
2023-05-20T17:30:32.347Z,101475.88
2023-05-20T17:32:59.520Z,101474.63
2023-05-20T17:35:26.697Z,101477.56
2023-05-20T17:37:54.016Z,101472.28
2023-05-20T17:40:21.585Z,101479.91
2023-05-20T17:42:48.704Z,101480.97
2023-05-20T17:45:16.454Z,101479.91
2023-05-20T17:47:43.445Z,101477.78
2023-05-20T17:50:11.197Z,101476.28
2023-05-20T17:52:38.283Z,101469.09
2023-05-20T17:55:06.907Z,101478.63
2023-05-20T17:57:34.540Z,101476.06
2023-05-20T18:00:02.503Z,101486.22
2023-05-20T18:02:29.644Z,101482.81
2023-05-20T18:04:56.649Z,101491.06
2023-05-20T18:07:23.657Z,101483.44
2023-05-20T18:09:50.794Z,101484.22
2023-05-20T18:12:17.832Z,101483.16
2023-05-20T18:14:45.760Z,101488.66
2023-05-20T18:17:12.781Z,101482.47
2023-05-20T18:19:39.805Z,101476.75
2023-05-20T18:22:07.505Z,101487.28
2023-05-20T18:24:34.550Z,101488.81
2023-05-20T18:27:01.630Z,101492.16
2023-05-20T18:29:28.863Z,101495.28
2023-05-20T18:31:55.922Z,101497.59
2023-05-20T18:34:22.963Z,101492.06
2023-05-20T18:36:50.129Z,101483.16
2023-05-20T18:39:20.765Z,101490.94
2023-05-20T18:41:48.768Z,101484.81
2023-05-20T18:44:19.957Z,101477.19
2023-05-20T18:46:46.970Z,101479.31
2023-05-20T18:49:14.022Z,101477.56
2023-05-20T18:51:41.580Z,101485.59
2023-05-20T18:54:08.784Z,101483.47
2023-05-20T18:56:36.369Z,101484.91
2023-05-20T18:59:03.365Z,101484.00
2023-05-20T19:01:30.641Z,101488.03
2023-05-20T19:03:57.640Z,101482.84
2023-05-20T19:06:24.703Z,101491.88
2023-05-20T19:08:51.657Z,101483.81
2023-05-20T19:11:18.795Z,101487.72
2023-05-20T19:13:45.730Z,101494.41
2023-05-20T19:16:12.774Z,101488.66
2023-05-20T19:18:39.864Z,101481.50
2023-05-20T19:21:06.778Z,101482.03
2023-05-20T19:23:33.841Z,101483.19
2023-05-20T19:26:00.969Z,101489.66
2023-05-20T19:28:28.109Z,101486.00
2023-05-20T19:30:55.076Z,101495.56
2023-05-20T19:33:22.267Z,101496.34
2023-05-20T19:35:49.236Z,101500.88
2023-05-20T19:38:16.597Z,101500.16
2023-05-20T19:40:44.862Z,101500.25
2023-05-20T19:43:12.040Z,101496.78
2023-05-20T19:45:39.169Z,101492.47
2023-05-20T19:48:06.992Z,101500.97
2023-05-20T19:50:34.481Z,101490.50
2023-05-20T19:53:06.408Z,101489.09
2023-05-20T19:55:36.507Z,101499.94
2023-05-20T19:58:31.491Z,101505.41
2023-05-20T20:00:58.752Z,101509.91
2023-05-20T20:03:25.874Z,101523.69
2023-05-20T20:05:53.364Z,101525.13
2023-05-20T20:08:20.297Z,101528.59
2023-05-20T20:10:47.306Z,101529.69
2023-05-20T20:13:14.806Z,101531.63
2023-05-20T20:15:41.740Z,101533.38
2023-05-20T20:18:08.788Z,101537.69
2023-05-20T20:20:40.195Z,101545.97
2023-05-20T20:23:08.764Z,101541.22
2023-05-20T20:25:39.701Z,101544.88
2023-05-20T20:28:09.049Z,101538.59
2023-05-20T20:30:38.930Z,101542.06
2023-05-20T20:33:08.869Z,101544.84
2023-05-20T20:35:37.241Z,101547.97
2023-05-20T20:38:10.755Z,101553.28
2023-05-20T20:40:42.137Z,101553.28
2023-05-20T20:43:11.160Z,101550.41
2023-05-20T20:45:38.306Z,101547.53
2023-05-20T20:48:08.259Z,101553.88
2023-05-20T20:50:36.638Z,101549.97
2023-05-20T20:53:03.698Z,101559.03
2023-05-20T20:55:30.932Z,101553.25
2023-05-20T20:57:58.617Z,101558.53
2023-05-20T21:00:27.182Z,101556.50
2023-05-20T21:02:54.365Z,101551.75
2023-05-20T21:05:21.834Z,101562.47
2023-05-20T21:07:52.750Z,101567.78
2023-05-20T21:10:19.835Z,101569.16
2023-05-20T21:12:46.895Z,101567.25
2023-05-20T21:15:15.233Z,101573.22
2023-05-20T21:17:42.383Z,101575.44
2023-05-20T21:20:10.328Z,101569.84
2023-05-20T21:22:37.269Z,101573.06
2023-05-20T21:25:04.681Z,101569.97
2023-05-20T21:27:31.667Z,101565.22
2023-05-20T21:29:58.666Z,101569.31
2023-05-20T21:32:25.772Z,101563.50
2023-05-20T21:34:52.770Z,101566.88
2023-05-20T21:37:19.681Z,101565.50
2023-05-20T21:39:46.651Z,101563.47
2023-05-20T21:42:13.658Z,101562.59
2023-05-20T21:44:40.710Z,101565.31
2023-05-20T21:47:07.708Z,101558.81
2023-05-20T21:49:34.756Z,101558.31
2023-05-20T21:52:01.780Z,101551.81
2023-05-20T21:54:28.730Z,101547.56
2023-05-20T21:56:55.720Z,101557.09
2023-05-20T21:59:22.627Z,101546.88
2023-05-20T22:01:51.064Z,101537.81
2023-05-20T22:04:19.360Z,101539.00
2023-05-20T22:06:46.341Z,101532.19
2023-05-20T22:09:13.287Z,101537.97
2023-05-20T22:11:40.232Z,101534.03
2023-05-20T22:14:07.241Z,101532.66
2023-05-20T22:16:34.256Z,101535.00
2023-05-20T22:19:02.862Z,101534.47
2023-05-20T22:21:32.105Z,101530.38
2023-05-20T22:24:01.224Z,101527.44
2023-05-20T22:26:28.731Z,101525.06
2023-05-20T22:28:55.647Z,101523.00
2023-05-20T22:31:22.655Z,101516.00
2023-05-20T22:33:49.820Z,101520.06
2023-05-20T22:36:16.815Z,101530.56
2023-05-20T22:38:43.825Z,101530.03
2023-05-20T22:41:11.076Z,101529.53
2023-05-20T22:43:38.004Z,101535.97
2023-05-20T22:46:05.176Z,101540.19
2023-05-20T22:48:32.334Z,101537.75
2023-05-20T22:50:59.234Z,101535.19
2023-05-20T22:53:26.504Z,101543.13
2023-05-20T22:55:53.600Z,101538.00
2023-05-20T22:58:20.528Z,101531.34
2023-05-20T23:00:47.503Z,101540.97
2023-05-20T23:03:14.540Z,101553.00
2023-05-20T23:05:41.799Z,101543.94
2023-05-20T23:08:08.747Z,101553.41
2023-05-20T23:10:35.726Z,101559.78
2023-05-20T23:13:02.862Z,101560.56
2023-05-20T23:15:31.361Z,101563.06
2023-05-20T23:17:58.866Z,101559.53
2023-05-20T23:20:26.070Z,101551.03
2023-05-20T23:22:53.008Z,101543.13
2023-05-20T23:25:20.064Z,101542.72
2023-05-20T23:27:47.046Z,101547.03
2023-05-20T23:30:14.053Z,101537.66
2023-05-20T23:32:41.077Z,101531.84
2023-05-20T23:35:11.883Z,101536.75
2023-05-20T23:37:39.153Z,101538.34
2023-05-20T23:40:09.724Z,101542.38
2023-05-20T23:42:37.047Z,101547.38
2023-05-20T23:45:06.397Z,101541.53
2023-05-20T23:47:34.070Z,101542.72
2023-05-20T23:50:01.828Z,101546.19
2023-05-20T23:52:28.844Z,101540.75
2023-05-20T23:54:56.827Z,101535.63
2023-05-20T23:57:23.739Z,101537.91
2023-05-20T23:59:51.065Z,101534.66
